Terminal Aerodrome Forecast
Issued by NWS

Home | Current Version | Previous Version | Graphics & Text | Print | Product List | Glossary On
Versions: 1 2 3 4 5 6 7 8 9 10 11 12 13 14 15
000
FTUS43 KGRB 202337
TAFATW
TAF
KATW 202337Z 2100/2124 21012G20KT P6SM BKN200 WS011/24050KT
     FM210700 23013G20KT P6SM BKN200 WS011/27040KT
     FM211100 26014G22KT P6SM SCT200
     FM211500 29017G28KT P6SM BKN045
     FM212200 30014G24KT P6SM SCT040=

USA.gov is the U.S. government's official web portal to all federal, state and local government web resources and services.